createdAt,value
2019-04-22T00:02:55.788Z,10.50
2019-04-22T00:06:19.057Z,10.50
2019-04-22T00:09:31.109Z,10.50
2019-04-22T00:12:34.619Z,10.50
2019-04-22T00:15:36.766Z,10.50
2019-04-22T00:19:04.360Z,10.50
2019-04-22T00:22:00.646Z,10.50
2019-04-22T00:25:03.311Z,10.50
2019-04-22T00:28:08.587Z,10.50
2019-04-22T00:31:32.749Z,10.50
2019-04-22T00:34:42.707Z,10.50
2019-04-22T00:37:59.795Z,10.50
2019-04-22T00:41:00.988Z,10.60
2019-04-22T00:44:12.294Z,10.50
2019-04-22T00:47:16.413Z,10.60
2019-04-22T00:50:22.437Z,10.60
2019-04-22T00:56:28.385Z,10.50
2019-04-22T00:59:43.310Z,10.50
2019-04-22T01:02:52.943Z,10.50
2019-04-22T01:05:46.835Z,10.50
2019-04-22T01:08:57.912Z,10.40
2019-04-22T01:12:00.410Z,10.40
2019-04-22T01:15:07.490Z,10.40
2019-04-22T01:18:11.465Z,10.40
2019-04-22T01:21:24.426Z,10.40
2019-04-22T01:24:22.136Z,10.30
2019-04-22T01:27:20.478Z,10.40
2019-04-22T01:30:27.904Z,10.30
2019-04-22T01:33:29.358Z,10.30
2019-04-22T01:36:51.737Z,10.30
2019-04-22T01:40:04.755Z,10.30
2019-04-22T01:43:07.299Z,10.30
2019-04-22T01:46:23.511Z,10.30
2019-04-22T01:49:25.692Z,10.30
2019-04-22T01:52:22.061Z,10.30
2019-04-22T01:58:33.308Z,10.30
2019-04-22T02:04:53.545Z,10.20
2019-04-22T02:08:02.514Z,10.20
2019-04-22T02:11:03.957Z,10.20
2019-04-22T02:14:11.636Z,10.10
2019-04-22T02:17:17.658Z,10.10
2019-04-22T02:20:18.409Z,10.10
2019-04-22T02:26:35.840Z,10.00
2019-04-22T02:29:45.460Z,10.00
2019-04-22T02:33:08.028Z,10.00
2019-04-22T02:42:10.729Z,9.90
2019-04-22T02:45:17.905Z,9.90
2019-04-22T02:48:40.179Z,10.00
2019-04-22T03:00:58.544Z,9.90
2019-04-22T03:04:01.235Z,9.80
2019-04-22T03:06:46.013Z,9.80
2019-04-22T03:10:18.935Z,9.90
2019-04-22T03:13:21.667Z,9.90
2019-04-22T03:22:30.218Z,9.90
2019-04-22T03:28:47.669Z,9.80
2019-04-22T03:38:21.123Z,9.80
2019-04-22T03:41:27.205Z,9.80
2019-04-22T03:53:34.043Z,9.60
2019-04-22T03:59:54.140Z,9.60
2019-04-22T04:03:04.666Z,9.60
2019-04-22T04:09:12.834Z,9.50
2019-04-22T04:12:21.571Z,9.40
2019-04-22T04:15:21.095Z,9.40
2019-04-22T04:18:26.534Z,9.40
2019-04-22T04:21:37.393Z,9.40
2019-04-22T04:28:22.937Z,9.50
2019-04-22T04:30:46.566Z,9.50
2019-04-22T04:34:00.515Z,9.60
2019-04-22T04:37:15.105Z,9.60
2019-04-22T04:40:11.827Z,9.60
2019-04-22T04:46:33.750Z,9.60
2019-04-22T04:49:36.293Z,9.60
2019-04-22T04:58:56.402Z,9.70
2019-04-22T05:05:08.324Z,9.80
2019-04-22T05:08:00.804Z,9.90
2019-04-22T05:11:06.780Z,9.90
2019-04-22T05:14:09.544Z,10.00
2019-04-22T05:17:23.499Z,10.10
2019-04-22T05:23:30.477Z,10.30
2019-04-22T05:26:32.907Z,10.30
2019-04-22T05:29:56.557Z,10.40
2019-04-22T05:32:44.702Z,10.50
2019-04-22T05:35:49.380Z,10.50
2019-04-22T05:39:00.078Z,10.60
2019-04-22T05:42:07.502Z,10.70
2019-04-22T05:45:13.272Z,10.80
2019-04-22T05:48:09.406Z,10.90
2019-04-22T05:51:21.431Z,10.90
2019-04-22T05:54:27.324Z,11.00
2019-04-22T05:57:33.025Z,11.10
2019-04-22T06:01:03.965Z,11.10
2019-04-22T06:03:56.477Z,11.20
2019-04-22T06:06:46.881Z,11.20
2019-04-22T06:10:08.347Z,11.30
2019-04-22T06:13:00.865Z,11.30
2019-04-22T06:16:20.454Z,11.30
2019-04-22T06:19:21.597Z,11.40
2019-04-22T06:22:40.020Z,11.40
2019-04-22T06:25:55.032Z,11.50
2019-04-22T06:28:48.172Z,11.50
2019-04-22T06:32:15.302Z,11.50
2019-04-22T06:35:01.129Z,11.60
2019-04-22T06:38:22.803Z,11.60
2019-04-22T06:41:09.062Z,11.60
2019-04-22T06:44:26.528Z,11.60
2019-04-22T06:47:38.266Z,11.70
2019-04-22T06:50:27.200Z,11.70
2019-04-22T06:53:29.836Z,11.80
2019-04-22T06:56:35.638Z,11.80
2019-04-22T06:59:49.909Z,11.80
2019-04-22T07:03:12.366Z,11.90
2019-04-22T07:05:52.392Z,11.90
2019-04-22T07:09:20.620Z,11.90
2019-04-22T07:12:06.508Z,11.90
2019-04-22T07:21:24.005Z,12.00
2019-04-22T07:27:34.706Z,12.10
2019-04-22T07:30:40.751Z,12.20
2019-04-22T07:33:51.125Z,12.20
2019-04-22T07:36:59.260Z,12.30
2019-04-22T07:39:56.971Z,12.30
2019-04-22T07:43:14.877Z,12.40
2019-04-22T07:46:13.576Z,12.40
2019-04-22T07:49:22.021Z,12.40
2019-04-22T07:52:24.668Z,12.40
2019-04-22T07:55:27.640Z,12.40
2019-04-22T07:58:38.757Z,12.50
2019-04-22T08:01:59.138Z,12.50
2019-04-22T08:05:01.961Z,12.50
2019-04-22T08:07:59.462Z,12.50
2019-04-22T08:11:08.164Z,12.60
2019-04-22T08:14:07.509Z,12.50
2019-04-22T08:17:40.156Z,12.50
2019-04-22T08:20:26.896Z,12.50
2019-04-22T08:23:31.838Z,12.60
2019-04-22T08:26:32.293Z,12.60
2019-04-22T08:29:45.989Z,12.60
2019-04-22T08:36:11.971Z,12.60
2019-04-22T08:39:02.508Z,12.60
2019-04-22T08:42:27.790Z,12.60
2019-04-22T08:45:28.607Z,12.70
2019-04-22T08:48:31.189Z,12.80
2019-04-22T08:51:49.106Z,12.80
2019-04-22T08:54:49.062Z,12.80
2019-04-22T09:00:57.274Z,12.80
2019-04-22T09:10:11.430Z,12.40
2019-04-22T09:13:14.543Z,12.40
2019-04-22T09:19:47.767Z,12.60
2019-04-22T09:22:53.723Z,12.70
2019-04-22T09:26:06.596Z,12.80
2019-04-22T09:32:24.849Z,12.70
2019-04-22T09:35:16.009Z,12.60
2019-04-22T09:38:32.935Z,12.60
2019-04-22T09:41:31.782Z,12.60
2019-04-22T09:44:36.231Z,12.60
2019-04-22T09:47:53.727Z,12.60
2019-04-22T09:50:48.011Z,12.70
2019-04-22T09:54:00.988Z,12.80
2019-04-22T09:57:02.104Z,12.80
2019-04-22T10:00:10.247Z,13.00
2019-04-22T10:03:13.668Z,13.10
2019-04-22T10:15:39.253Z,13.80
2019-04-22T10:18:49.040Z,14.00
2019-04-22T10:21:54.488Z,14.20
2019-04-22T10:24:57.052Z,14.30
2019-04-22T10:28:10.415Z,14.50
2019-04-22T10:31:19.290Z,14.70
2019-04-22T10:33:59.940Z,14.90
2019-04-22T10:37:02.084Z,15.00
2019-04-22T10:40:03.972Z,15.10
2019-04-22T10:43:11.529Z,15.30
2019-04-22T10:46:15.924Z,15.40
2019-04-22T10:49:20.375Z,15.50
2019-04-22T10:52:25.654Z,15.50
2019-04-22T10:55:30.015Z,15.80
2019-04-22T10:58:34.948Z,15.90
2019-04-22T11:01:40.334Z,16.10
2019-04-22T11:04:45.970Z,16.10
2019-04-22T11:07:57.911Z,16.40
2019-04-22T11:11:10.657Z,16.50
2019-04-22T11:14:04.982Z,16.60
2019-04-22T11:17:13.493Z,16.70
2019-04-22T11:20:19.722Z,16.80
2019-04-22T11:23:24.688Z,16.90
2019-04-22T11:26:30.197Z,17.00
2019-04-22T11:29:35.390Z,17.20
2019-04-22T11:32:40.410Z,17.30
2019-04-22T11:35:45.896Z,17.50
2019-04-22T11:38:57.953Z,17.50
2019-04-22T11:41:58.267Z,17.40
2019-04-22T11:45:03.588Z,17.30
2019-04-22T11:48:09.137Z,17.30
2019-04-22T11:51:14.013Z,17.20
2019-04-22T11:54:18.908Z,17.20
2019-04-22T11:57:23.560Z,17.30
2019-04-22T12:00:36.996Z,17.30
2019-04-22T12:03:41.975Z,17.40
2019-04-22T12:06:46.482Z,17.40
2019-04-22T12:09:51.383Z,17.40
2019-04-22T12:12:55.822Z,17.40
2019-04-22T12:16:00.951Z,17.30
2019-04-22T12:19:05.442Z,17.10
2019-04-22T12:22:10.988Z,17.00
2019-04-22T12:25:30.015Z,16.90
2019-04-22T12:28:23.239Z,16.80
2019-04-22T12:31:27.627Z,16.70
2019-04-22T12:34:33.404Z,16.70
2019-04-22T12:37:46.766Z,16.60
2019-04-22T12:40:51.319Z,16.60
2019-04-22T12:43:51.313Z,16.50
2019-04-22T12:46:56.444Z,16.40
2019-04-22T12:50:08.979Z,16.30
2019-04-22T12:53:10.620Z,16.30
2019-04-22T12:56:12.908Z,16.20
2019-04-22T12:59:17.486Z,16.20
2019-04-22T13:02:23.011Z,16.20
2019-04-22T13:05:29.092Z,16.20
2019-04-22T13:08:33.969Z,16.10
2019-04-22T13:11:38.941Z,16.10
2019-04-22T13:14:45.545Z,16.10
2019-04-22T13:18:01.267Z,16.20
2019-04-22T13:20:56.760Z,16.40
2019-04-22T13:24:02.716Z,16.60
2019-04-22T13:27:07.063Z,16.80
2019-04-22T13:30:14.483Z,17.00
2019-04-22T13:33:20.981Z,17.20
2019-04-22T13:36:27.748Z,17.40
2019-04-22T13:39:31.996Z,17.50
2019-04-22T13:42:37.485Z,17.50
2019-04-22T13:45:42.013Z,17.60
2019-04-22T13:49:17.892Z,17.60
2019-04-22T13:52:31.948Z,17.40
2019-04-22T13:55:25.440Z,17.30
2019-04-22T13:58:17.105Z,17.10
2019-04-22T14:01:14.882Z,16.90
2019-04-22T14:04:24.771Z,16.70
2019-04-22T14:07:30.611Z,16.60
2019-04-22T14:10:36.288Z,16.40
2019-04-22T14:13:41.902Z,16.30
2019-04-22T14:16:46.924Z,16.10
2019-04-22T14:19:52.692Z,16.10
2019-04-22T14:22:57.153Z,16.20
2019-04-22T14:26:02.587Z,16.30
2019-04-22T14:29:08.057Z,16.50
2019-04-22T14:32:21.425Z,16.60
2019-04-22T14:35:23.022Z,16.60
2019-04-22T14:38:27.992Z,16.60
2019-04-22T14:41:49.761Z,16.60
2019-04-22T14:45:20.190Z,16.60
2019-04-22T14:48:05.831Z,16.50
2019-04-22T14:51:07.089Z,16.50
2019-04-22T14:54:16.901Z,16.60
2019-04-22T14:57:03.309Z,16.70
2019-04-22T15:00:11.513Z,17.00
2019-04-22T15:03:17.549Z,17.20
2019-04-22T15:06:22.327Z,17.00
2019-04-22T15:09:28.080Z,17.00
2019-04-22T15:12:42.298Z,17.20
2019-04-22T15:15:51.193Z,17.00
2019-04-22T15:19:09.608Z,17.00
2019-04-22T15:22:14.615Z,17.20
2019-04-22T15:25:19.036Z,17.10
2019-04-22T15:28:23.772Z,17.00
2019-04-22T15:31:29.361Z,17.00
2019-04-22T15:34:34.603Z,17.00
2019-04-22T15:37:39.481Z,16.90
2019-04-22T15:40:44.834Z,16.70
2019-04-22T15:43:50.188Z,16.60
2019-04-22T15:46:55.058Z,16.50
2019-04-22T15:50:00.275Z,16.50
2019-04-22T15:53:04.738Z,16.40
2019-04-22T15:56:10.433Z,16.40
2019-04-22T15:59:30.187Z,16.40
2019-04-22T16:02:21.457Z,16.30
2019-04-22T16:05:27.916Z,16.20
2019-04-22T16:08:34.201Z,16.20
2019-04-22T16:11:40.420Z,16.10
2019-04-22T16:14:50.616Z,16.00
2019-04-22T16:17:50.911Z,16.00
2019-04-22T16:20:56.435Z,15.90
2019-04-22T16:24:27.915Z,15.90
2019-04-22T16:27:34.358Z,15.80
2019-04-22T16:30:39.486Z,15.70
2019-04-22T16:33:47.686Z,15.70
2019-04-22T16:36:52.547Z,15.60
2019-04-22T16:39:58.960Z,15.60
2019-04-22T16:43:06.190Z,15.50
2019-04-22T16:46:09.766Z,15.50
2019-04-22T16:49:14.288Z,15.40
2019-04-22T16:52:20.108Z,15.40
2019-04-22T16:55:26.597Z,15.30
2019-04-22T16:58:32.618Z,15.30
2019-04-22T17:01:59.124Z,15.20
2019-04-22T17:05:35.930Z,15.20
2019-04-22T17:08:40.617Z,15.10
2019-04-22T17:11:45.736Z,15.10
2019-04-22T17:14:56.320Z,15.00
2019-04-22T17:17:57.139Z,15.00
2019-04-22T17:21:10.636Z,15.00
2019-04-22T17:24:19.429Z,15.00
2019-04-22T17:27:24.771Z,14.90
2019-04-22T17:30:31.051Z,14.90
2019-04-22T17:33:36.995Z,14.80
2019-04-22T17:36:42.375Z,14.80
2019-04-22T17:40:05.615Z,14.70
2019-04-22T17:43:23.832Z,14.70
2019-04-22T17:46:31.006Z,14.60
2019-04-22T17:50:08.529Z,14.50
2019-04-22T17:53:02.578Z,14.30
2019-04-22T17:56:08.588Z,14.30
2019-04-22T17:59:08.285Z,14.20
2019-04-22T18:02:11.160Z,14.10
2019-04-22T18:05:04.227Z,14.00
2019-04-22T18:08:25.592Z,14.00
2019-04-22T18:11:39.711Z,13.90
2019-04-22T18:14:51.607Z,13.80
2019-04-22T18:17:54.202Z,13.80
2019-04-22T18:20:48.933Z,13.70
2019-04-22T18:28:08.297Z,13.50
2019-04-22T18:30:46.675Z,13.40
2019-04-22T18:33:55.619Z,13.40
2019-04-22T18:36:59.096Z,13.30
2019-04-22T18:40:14.890Z,13.20
2019-04-22T18:43:26.254Z,13.10
2019-04-22T18:46:25.403Z,13.20
2019-04-22T18:49:33.935Z,13.10
2019-04-22T18:53:14.435Z,13.10
2019-04-22T18:56:19.274Z,13.10
2019-04-22T18:59:13.775Z,13.00
2019-04-22T19:02:16.294Z,13.00
2019-04-22T19:05:34.721Z,13.00
2019-04-22T19:08:50.143Z,12.90
2019-04-22T19:12:08.743Z,12.90
2019-04-22T19:15:05.457Z,12.80
2019-04-22T19:18:14.828Z,12.80
2019-04-22T19:21:13.195Z,12.80
2019-04-22T19:24:15.016Z,12.70
2019-04-22T19:27:26.795Z,12.70
2019-04-22T19:30:39.532Z,12.70
2019-04-22T19:33:42.668Z,12.60
2019-04-22T19:36:46.881Z,12.60
2019-04-22T19:40:03.333Z,12.60
2019-04-22T19:43:03.968Z,12.60
2019-04-22T19:46:02.202Z,12.50
2019-04-22T19:49:19.917Z,12.50
2019-04-22T19:52:24.970Z,12.40
2019-04-22T19:55:25.430Z,12.40
2019-04-22T19:58:27.800Z,12.40
2019-04-22T20:01:49.461Z,12.40
2019-04-22T20:05:10.785Z,12.30
2019-04-22T20:08:14.644Z,12.30
2019-04-22T20:11:22.718Z,12.30
2019-04-22T20:14:28.389Z,12.20
2019-04-22T20:17:52.567Z,12.20
2019-04-22T20:20:49.076Z,12.20
2019-04-22T20:23:45.668Z,12.10
2019-04-22T20:27:10.565Z,12.10
2019-04-22T20:30:04.743Z,12.10
2019-04-22T20:33:08.401Z,12.00
2019-04-22T20:36:42.569Z,12.00
2019-04-22T20:39:33.366Z,11.90
2019-04-22T20:45:40.241Z,11.90
2019-04-22T20:48:50.297Z,11.90
2019-04-22T20:52:13.656Z,11.80
2019-04-22T20:54:58.867Z,11.80
2019-04-22T20:58:05.110Z,11.80
2019-04-22T21:01:05.257Z,11.70
2019-04-22T21:04:03.511Z,11.70
2019-04-22T21:07:20.126Z,11.70
2019-04-22T21:10:22.817Z,11.70
2019-04-22T21:13:34.344Z,11.60
2019-04-22T21:16:43.193Z,11.60
2019-04-22T21:20:00.605Z,11.50
2019-04-22T21:22:58.231Z,11.50
2019-04-22T21:26:02.402Z,11.50
2019-04-22T21:29:09.892Z,11.40
2019-04-22T21:32:17.656Z,11.40
2019-04-22T21:35:43.612Z,11.40
2019-04-22T21:38:35.480Z,11.30
2019-04-22T21:41:34.458Z,11.30
2019-04-22T21:44:42.685Z,11.30
2019-04-22T21:47:57.484Z,11.20
2019-04-22T21:50:59.918Z,11.20
2019-04-22T21:54:04.089Z,11.20
2019-04-22T21:57:46.133Z,11.20
2019-04-22T22:00:43.261Z,11.10
2019-04-22T22:03:48.617Z,11.10
2019-04-22T22:06:42.561Z,11.10
2019-04-22T22:09:59.655Z,11.00
2019-04-22T22:13:06.644Z,10.90
2019-04-22T22:16:10.314Z,11.00
2019-04-22T22:19:14.499Z,10.90
2019-04-22T22:22:41.984Z,10.90
2019-04-22T22:25:28.059Z,10.90
2019-04-22T22:29:01.965Z,10.90
2019-04-22T22:31:47.189Z,10.90
2019-04-22T22:34:50.573Z,10.80
2019-04-22T22:37:55.183Z,10.70
2019-04-22T22:40:43.969Z,10.60
2019-04-22T22:43:51.201Z,10.60
2019-04-22T22:47:10.169Z,10.60
2019-04-22T22:50:20.589Z,10.50
2019-04-22T22:53:37.293Z,10.50
2019-04-22T22:56:42.299Z,10.40
2019-04-22T22:59:38.965Z,10.40
2019-04-22T23:03:03.518Z,10.40
2019-04-22T23:05:59.025Z,10.40
2019-04-22T23:09:05.693Z,10.30
2019-04-22T23:12:13.307Z,10.30
2019-04-22T23:15:08.887Z,10.30
2019-04-22T23:17:56.170Z,10.30
2019-04-22T23:21:01.446Z,10.20
2019-04-22T23:24:43.742Z,10.20
2019-04-22T23:27:56.392Z,10.20
2019-04-22T23:31:18.034Z,10.20
2019-04-22T23:34:26.563Z,10.20
2019-04-22T23:37:39.620Z,10.10
2019-04-22T23:40:45.085Z,10.10
2019-04-22T23:43:57.596Z,10.10
2019-04-22T23:47:02.021Z,10.10
2019-04-22T23:50:09.518Z,10.00
2019-04-22T23:54:04.380Z,10.00
2019-04-22T23:56:35.140Z,10.00
